Time;durP1;ratioP1;P1;durP2;ratioP2;P2;SDS_P1;SDS_P2;PMS_P1;PMS_P2;Temp;Humidity;BMP_temperature;BMP_pressure;BME280_temperature;BME280_humidity;BME280_pressure;Samples;Min_cycle;Max_cycle;Signal;HPM_P1;HPM_P2
2023/09/10 00:00:49;;;;;;;16.30;14.87;;;;;;;;;;5094763;28;20813;-76
2023/09/10 00:03:15;;;;;;;18.03;16.23;;;;;;;;;;5094562;28;20480;-77
2023/09/10 00:05:41;;;;;;;18.40;16.63;;;;;;;;;;5094737;28;20905;-76
2023/09/10 00:08:07;;;;;;;18.23;16.60;;;;;;;;;;5085907;28;20185;-76
2023/09/10 00:10:33;;;;;;;16.97;15.40;;;;;;;;;;5091708;28;20415;-77
2023/09/10 00:12:59;;;;;;;18.00;16.30;;;;;;;;;;5095840;28;20778;-77
2023/09/10 00:15:25;;;;;;;18.80;17.10;;;;;;;;;;5095875;28;20182;-77
2023/09/10 00:17:52;;;;;;;18.10;16.60;;;;;;;;;;5095723;28;20173;-77
2023/09/10 00:20:18;;;;;;;19.13;16.03;;;;;;;;;;5095730;28;20407;-77
2023/09/10 00:22:44;;;;;;;17.43;15.93;;;;;;;;;;5095333;28;20466;-77
2023/09/10 00:25:10;;;;;;;18.33;16.63;;;;;;;;;;5095692;28;20421;-77
2023/09/10 00:27:36;;;;;;;17.03;15.50;;;;;;;;;;5095645;28;20170;-77
2023/09/10 00:30:03;;;;;;;17.33;15.73;;;;;;;;;;5095328;28;20922;-77
2023/09/10 00:32:29;;;;;;;17.53;15.57;;;;;;;;;;5095388;28;20619;-77
2023/09/10 00:34:55;;;;;;;15.73;14.40;;;;;;;;;;5095051;28;20458;-77
2023/09/10 00:37:21;;;;;;;17.53;16.03;;;;;;;;;;5094608;28;20178;-76
2023/09/10 00:39:47;;;;;;;16.20;14.77;;;;;;;;;;5095476;28;20578;-77
2023/09/10 00:42:13;;;;;;;19.30;17.40;;;;;;;;;;5095341;28;20419;-77
2023/09/10 00:44:40;;;;;;;19.70;17.80;;;;;;;;;;5095174;28;20208;-76
2023/09/10 00:47:06;;;;;;;17.53;16.03;;;;;;;;;;5095295;28;20835;-77
2023/09/10 00:49:32;;;;;;;19.13;17.43;;;;;;;;;;5095232;28;20420;-77
2023/09/10 00:52:00;;;;;;;18.77;16.87;;;;;;;;;;5094309;28;20410;-77
2023/09/10 00:54:26;;;;;;;17.73;16.13;;;;;;;;;;5095115;28;20491;-77
2023/09/10 00:56:53;;;;;;;18.77;16.90;;;;;;;;;;5095164;28;20404;-77
2023/09/10 00:59:19;;;;;;;20.17;18.20;;;;;;;;;;5095046;28;20407;-77
2023/09/10 01:01:45;;;;;;;20.87;18.83;;;;;;;;;;5094713;28;20443;-76
2023/09/10 01:04:12;;;;;;;19.83;18.00;;;;;;;;;;5094872;28;20472;-76
2023/09/10 01:06:37;;;;;;;21.73;19.63;;;;;;;;;;5094349;28;20508;-77
2023/09/10 01:09:04;;;;;;;22.23;20.23;;;;;;;;;;5094730;28;20502;-77
2023/09/10 01:11:33;;;;;;;20.70;18.57;;;;;;;;;;5094878;28;20828;-76
2023/09/10 01:14:07;;;;;;;22.53;20.33;;;;;;;;;;5093309;28;20421;-76
2023/09/10 01:16:53;;;;;;;22.07;20.00;;;;;;;;;;5093439;28;20414;-76
2023/09/10 01:19:22;;;;;;;21.83;19.63;;;;;;;;;;5094407;28;20410;-76
2023/09/10 01:21:57;;;;;;;20.87;18.97;;;;;;;;;;5094190;28;20453;-76
2023/09/10 01:24:43;;;;;;;21.27;19.23;;;;;;;;;;5094519;28;20471;-76
2023/09/10 01:27:09;;;;;;;19.73;18.03;;;;;;;;;;5094202;28;20782;-76
2023/09/10 01:29:35;;;;;;;19.63;18.00;;;;;;;;;;5094511;28;20483;-76
2023/09/10 01:32:05;;;;;;;21.40;19.43;;;;;;;;;;5094446;28;20415;-76
2023/09/10 01:34:34;;;;;;;18.70;16.90;;;;;;;;;;5094273;28;20662;-76
2023/09/10 01:37:08;;;;;;;19.87;17.93;;;;;;;;;;5093967;28;20412;-76
2023/09/10 01:39:37;;;;;;;20.10;18.03;;;;;;;;;;5093064;28;20420;-76
2023/09/10 01:42:06;;;;;;;18.50;16.80;;;;;;;;;;5094261;28;20469;-76
2023/09/10 01:44:33;;;;;;;18.83;17.13;;;;;;;;;;5093671;28;20476;-76
2023/09/10 01:47:00;;;;;;;22.30;20.30;;;;;;;;;;5092793;28;20406;-76
2023/09/10 01:49:26;;;;;;;20.10;18.17;;;;;;;;;;5094103;28;20417;-77
2023/09/10 01:51:52;;;;;;;18.93;17.20;;;;;;;;;;5093501;28;20416;-77
2023/09/10 01:54:18;;;;;;;19.63;18.00;;;;;;;;;;5093970;28;20427;-76
2023/09/10 01:56:44;;;;;;;20.73;18.90;;;;;;;;;;5093797;28;20453;-76
2023/09/10 01:59:10;;;;;;;18.50;16.90;;;;;;;;;;5093958;28;20461;-76
2023/09/10 02:01:36;;;;;;;18.53;16.73;;;;;;;;;;5093691;28;20176;-77
2023/09/10 02:04:03;;;;;;;19.07;17.07;;;;;;;;;;5091168;28;20872;-77
2023/09/10 02:06:28;;;;;;;18.63;16.93;;;;;;;;;;5093152;28;20928;-77
2023/09/10 02:08:54;;;;;;;17.63;16.07;;;;;;;;;;5093755;28;20418;-77
2023/09/10 02:11:21;;;;;;;20.40;18.50;;;;;;;;;;5093584;28;20236;-76
2023/09/10 02:13:46;;;;;;;18.70;17.00;;;;;;;;;;5093609;28;20221;-76
2023/09/10 02:16:12;;;;;;;18.97;17.00;;;;;;;;;;5093559;28;20434;-77
2023/09/10 02:18:39;;;;;;;18.90;16.80;;;;;;;;;;5093482;28;20423;-77
2023/09/10 02:21:09;;;;;;;18.93;17.03;;;;;;;;;;5092829;28;20513;-76
2023/09/10 02:23:35;;;;;;;19.07;17.47;;;;;;;;;;5093380;28;20479;-77
2023/09/10 02:26:01;;;;;;;18.43;16.73;;;;;;;;;;5093440;28;20418;-77
2023/09/10 02:28:27;;;;;;;17.27;15.87;;;;;;;;;;5093352;28;20494;-77
2023/09/10 02:30:53;;;;;;;19.50;17.70;;;;;;;;;;5093340;28;20406;-76
2023/09/10 02:33:19;;;;;;;18.67;16.93;;;;;;;;;;5093231;28;20933;-76
2023/09/10 02:35:45;;;;;;;19.43;17.73;;;;;;;;;;5093295;28;20719;-76
2023/09/10 02:38:11;;;;;;;17.93;16.23;;;;;;;;;;5092881;28;20492;-76
2023/09/10 02:40:40;;;;;;;19.30;17.40;;;;;;;;;;5093137;28;21334;-76
2023/09/10 02:43:06;;;;;;;18.10;16.40;;;;;;;;;;5093088;28;20222;-76
2023/09/10 02:45:32;;;;;;;19.13;17.23;;;;;;;;;;5078485;28;20480;-76
2023/09/10 02:47:58;;;;;;;19.83;17.87;;;;;;;;;;5072932;28;20176;-76
2023/09/10 02:50:24;;;;;;;19.53;17.70;;;;;;;;;;5072906;28;20164;-76
2023/09/10 02:52:50;;;;;;;17.83;16.33;;;;;;;;;;5072325;28;20206;-76
2023/09/10 02:55:16;;;;;;;18.60;16.80;;;;;;;;;;5071496;28;20191;-76
2023/09/10 02:57:42;;;;;;;19.20;17.50;;;;;;;;;;5072723;28;20164;-76
2023/09/10 03:00:10;;;;;;;18.50;16.73;;;;;;;;;;5086018;28;20747;-76
2023/09/10 03:02:36;;;;;;;18.90;17.17;;;;;;;;;;5092459;28;20456;-76
2023/09/10 03:05:02;;;;;;;19.87;18.07;;;;;;;;;;5092850;28;20432;-76
2023/09/10 03:07:28;;;;;;;19.43;17.63;;;;;;;;;;5092599;28;20195;-76
2023/09/10 03:09:54;;;;;;;20.33;18.23;;;;;;;;;;5092882;28;20413;-76
2023/09/10 03:12:23;;;;;;;20.10;18.33;;;;;;;;;;5092825;28;20697;-76
2023/09/10 03:14:50;;;;;;;21.00;19.20;;;;;;;;;;5092433;28;20167;-76
2023/09/10 03:17:16;;;;;;;18.77;17.07;;;;;;;;;;5092735;28;20413;-76
2023/09/10 03:19:43;;;;;;;19.53;17.80;;;;;;;;;;5092734;28;20408;-77
2023/09/10 03:22:09;;;;;;;20.27;18.57;;;;;;;;;;5092457;28;20436;-76
2023/09/10 03:24:35;;;;;;;21.37;19.03;;;;;;;;;;5092147;28;21001;-76
2023/09/10 03:27:00;;;;;;;21.50;18.33;;;;;;;;;;5092349;28;20513;-77
2023/09/10 03:29:26;;;;;;;18.80;17.20;;;;;;;;;;5091376;28;20452;-77
2023/09/10 03:31:55;;;;;;;19.57;17.80;;;;;;;;;;5092559;28;20581;-77
2023/09/10 03:34:21;;;;;;;22.40;20.33;;;;;;;;;;5092600;28;20182;-76
2023/09/10 03:36:47;;;;;;;18.60;17.00;;;;;;;;;;5092134;28;20409;-76
2023/09/10 03:39:13;;;;;;;20.90;18.90;;;;;;;;;;5092605;28;20898;-76
2023/09/10 03:41:39;;;;;;;20.30;18.50;;;;;;;;;;5091252;28;20172;-76
2023/09/10 03:44:05;;;;;;;21.37;19.33;;;;;;;;;;5092405;28;20467;-76
2023/09/10 03:46:31;;;;;;;19.40;17.53;;;;;;;;;;5092365;28;20535;-76
2023/09/10 03:48:57;;;;;;;21.90;20.00;;;;;;;;;;5091132;28;20429;-76
2023/09/10 03:51:23;;;;;;;19.67;17.73;;;;;;;;;;5090775;28;20176;-76
2023/09/10 03:53:48;;;;;;;19.60;17.53;;;;;;;;;;5092424;28;20530;-76
2023/09/10 03:56:14;;;;;;;19.27;17.47;;;;;;;;;;5092385;28;20447;-76
2023/09/10 03:58:40;;;;;;;20.37;18.33;;;;;;;;;;5091064;28;20169;-76
2023/09/10 04:01:06;;;;;;;19.63;17.90;;;;;;;;;;5092309;28;20200;-77
2023/09/10 04:03:32;;;;;;;19.40;17.50;;;;;;;;;;5092119;28;20233;-76
2023/09/10 04:05:58;;;;;;;20.27;18.10;;;;;;;;;;5092053;28;20230;-77
2023/09/10 04:08:24;;;;;;;19.53;17.77;;;;;;;;;;5092296;28;20745;-76
2023/09/10 04:10:50;;;;;;;19.50;17.77;;;;;;;;;;5092184;28;20500;-76
2023/09/10 04:13:16;;;;;;;20.63;17.67;;;;;;;;;;5092165;28;20192;-76
2023/09/10 04:15:41;;;;;;;21.63;19.63;;;;;;;;;;5092204;28;20179;-76
2023/09/10 04:18:07;;;;;;;22.40;20.07;;;;;;;;;;5092284;28;20174;-76
2023/09/10 04:20:33;;;;;;;21.20;19.20;;;;;;;;;;5092055;28;20173;-76
2023/09/10 04:22:59;;;;;;;24.50;22.00;;;;;;;;;;5092088;28;20513;-76
2023/09/10 04:25:25;;;;;;;26.20;23.63;;;;;;;;;;5092056;28;20462;-77
2023/09/10 04:27:51;;;;;;;27.57;24.90;;;;;;;;;;5094671;28;20406;-76
2023/09/10 04:30:17;;;;;;;29.50;26.60;;;;;;;;;;5095665;28;20414;-76
2023/09/10 04:32:43;;;;;;;26.70;24.13;;;;;;;;;;5094280;28;20460;-76
2023/09/10 04:35:10;;;;;;;29.10;25.47;;;;;;;;;;5095647;28;20646;-76
2023/09/10 04:37:36;;;;;;;26.63;24.03;;;;;;;;;;5095105;28;20907;-76
2023/09/10 04:40:07;;;;;;;23.43;21.23;;;;;;;;;;5095493;28;20436;-76
2023/09/10 04:42:33;;;;;;;22.43;20.33;;;;;;;;;;5095371;28;21093;-76
2023/09/10 04:44:59;;;;;;;20.27;18.27;;;;;;;;;;5095430;28;20519;-76
2023/09/10 04:47:25;;;;;;;20.40;18.57;;;;;;;;;;5095472;28;20532;-76
2023/09/10 04:49:51;;;;;;;22.03;20.13;;;;;;;;;;5095426;28;20185;-76
2023/09/10 04:52:17;;;;;;;19.50;17.70;;;;;;;;;;5088792;28;20421;-77
2023/09/10 04:54:43;;;;;;;21.57;19.47;;;;;;;;;;5094309;28;20931;-77
2023/09/10 04:57:10;;;;;;;20.20;18.30;;;;;;;;;;5094800;28;20691;-76
2023/09/10 04:59:36;;;;;;;22.17;19.80;;;;;;;;;;5093613;28;20443;-76
2023/09/10 05:02:08;;;;;;;18.90;16.90;;;;;;;;;;5094697;28;20461;-76
2023/09/10 05:04:37;;;;;;;20.50;18.60;;;;;;;;;;5092644;28;20557;-76
2023/09/10 05:07:03;;;;;;;21.47;19.47;;;;;;;;;;5092272;28;20435;-76
2023/09/10 05:09:30;;;;;;;21.17;19.17;;;;;;;;;;5094248;28;20419;-76
2023/09/10 05:11:57;;;;;;;19.77;17.87;;;;;;;;;;5094598;28;20166;-76
2023/09/10 05:14:23;;;;;;;23.63;21.50;;;;;;;;;;5094671;28;20980;-76
2023/09/10 05:16:49;;;;;;;20.07;18.10;;;;;;;;;;5094560;28;20502;-76
2023/09/10 05:19:15;;;;;;;23.13;21.03;;;;;;;;;;5094585;28;20417;-77
2023/09/10 05:21:41;;;;;;;24.07;21.77;;;;;;;;;;5094294;28;20176;-77
2023/09/10 05:24:07;;;;;;;23.60;21.30;;;;;;;;;;5094471;28;20463;-77
2023/09/10 05:26:33;;;;;;;25.73;23.27;;;;;;;;;;5091786;28;21005;-77
2023/09/10 05:28:59;;;;;;;28.90;25.97;;;;;;;;;;5094463;28;20420;-77
2023/09/10 05:31:25;;;;;;;27.00;24.40;;;;;;;;;;5094324;28;20167;-76
2023/09/10 05:33:51;;;;;;;28.60;25.90;;;;;;;;;;5094210;28;20623;-77
2023/09/10 05:36:17;;;;;;;28.93;26.03;;;;;;;;;;5093914;28;20441;-76
2023/09/10 05:38:43;;;;;;;29.17;26.33;;;;;;;;;;5093967;28;20905;-77
2023/09/10 05:41:09;;;;;;;31.40;28.30;;;;;;;;;;5094103;28;20175;-77
2023/09/10 05:43:35;;;;;;;31.73;28.53;;;;;;;;;;5094088;28;20283;-77
2023/09/10 05:46:01;;;;;;;40.67;36.40;;;;;;;;;;5092893;28;20176;-77
2023/09/10 05:48:27;;;;;;;44.73;38.07;;;;;;;;;;5094537;28;20210;-77
2023/09/10 05:50:59;;;;;;;52.47;45.70;;;;;;;;;;5094177;28;20421;-76
2023/09/10 05:53:25;;;;;;;64.43;52.90;;;;;;;;;;5094402;28;20415;-76
2023/09/10 05:55:53;;;;;;;70.93;59.27;;;;;;;;;;5094469;28;20457;-76
2023/09/10 05:58:19;;;;;;;77.47;63.60;;;;;;;;;;5094280;28;20235;-76
2023/09/10 06:00:45;;;;;;;89.90;69.20;;;;;;;;;;5093044;28;20592;-76
2023/09/10 06:03:11;;;;;;;89.47;69.20;;;;;;;;;;5092716;28;20505;-76
2023/09/10 06:05:37;;;;;;;96.17;73.20;;;;;;;;;;5093808;28;20879;-77
2023/09/10 06:08:03;;;;;;;97.97;72.07;;;;;;;;;;5094066;28;20432;-77
2023/09/10 06:10:29;;;;;;;104.47;72.50;;;;;;;;;;5094104;28;20182;-77
2023/09/10 06:12:55;;;;;;;98.47;72.47;;;;;;;;;;5094100;28;20882;-76
2023/09/10 06:15:21;;;;;;;93.87;69.40;;;;;;;;;;5093937;28;20183;-76
2023/09/10 06:17:47;;;;;;;91.23;69.23;;;;;;;;;;5094013;28;20623;-77
2023/09/10 06:20:13;;;;;;;92.93;68.07;;;;;;;;;;5093925;28;20406;-77
2023/09/10 06:22:39;;;;;;;94.77;71.70;;;;;;;;;;5093593;28;20180;-76
2023/09/10 06:25:05;;;;;;;95.10;70.17;;;;;;;;;;5093829;28;20413;-76
2023/09/10 06:27:31;;;;;;;84.90;67.90;;;;;;;;;;5093665;28;20445;-77
2023/09/10 06:29:57;;;;;;;85.83;66.83;;;;;;;;;;5093709;28;20460;-77
2023/09/10 06:32:23;;;;;;;81.20;60.17;;;;;;;;;;5093684;28;20198;-76
2023/09/10 06:34:49;;;;;;;81.27;59.67;;;;;;;;;;5093648;28;20266;-76
2023/09/10 06:37:15;;;;;;;73.10;57.63;;;;;;;;;;5092032;28;20174;-76
2023/09/10 06:39:41;;;;;;;67.30;56.20;;;;;;;;;;5091841;28;20194;-76
2023/09/10 06:42:13;;;;;;;68.07;54.57;;;;;;;;;;5092971;28;20417;-76
2023/09/10 06:44:43;;;;;;;63.77;51.37;;;;;;;;;;5090411;28;20468;-76
2023/09/10 06:47:09;;;;;;;60.03;50.40;;;;;;;;;;5092763;28;20409;-76
2023/09/10 06:49:35;;;;;;;66.03;52.60;;;;;;;;;;5092385;28;20942;-76
2023/09/10 06:52:01;;;;;;;66.90;52.70;;;;;;;;;;5092575;28;20438;-76
2023/09/10 06:54:27;;;;;;;57.50;50.87;;;;;;;;;;5093026;28;20413;-76
2023/09/10 06:56:53;;;;;;;64.43;49.80;;;;;;;;;;5093318;28;20418;-76
2023/09/10 06:59:19;;;;;;;63.40;51.50;;;;;;;;;;5093397;28;20201;-76
2023/09/10 07:01:45;;;;;;;67.87;51.70;;;;;;;;;;5093117;28;20217;-76
2023/09/10 07:04:17;;;;;;;63.00;50.30;;;;;;;;;;5091923;28;20473;-76
2023/09/10 07:06:44;;;;;;;60.67;49.23;;;;;;;;;;5092888;28;20406;-76
2023/09/10 07:09:11;;;;;;;63.80;48.00;;;;;;;;;;5093273;28;20408;-76
2023/09/10 07:11:36;;;;;;;63.77;49.40;;;;;;;;;;5093202;28;20409;-76
2023/09/10 07:14:05;;;;;;;64.57;50.90;;;;;;;;;;5092745;28;20425;-76
2023/09/10 07:16:33;;;;;;;66.90;50.97;;;;;;;;;;5092742;28;20595;-76
2023/09/10 07:18:59;;;;;;;66.27;48.00;;;;;;;;;;5092123;28;20414;-76
2023/09/10 07:21:25;;;;;;;67.50;50.80;;;;;;;;;;5092164;28;20889;-76
2023/09/10 07:23:51;;;;;;;69.07;50.80;;;;;;;;;;5092131;28;20250;-76
2023/09/10 07:26:17;;;;;;;60.90;47.13;;;;;;;;;;5092406;28;20527;-76
2023/09/10 07:28:43;;;;;;;65.47;50.20;;;;;;;;;;5092407;28;20173;-76
2023/09/10 07:31:09;;;;;;;62.63;46.30;;;;;;;;;;5091955;28;20416;-77
2023/09/10 07:33:38;;;;;;;58.60;46.40;;;;;;;;;;5092872;28;20662;-76
2023/09/10 07:36:04;;;;;;;60.03;46.37;;;;;;;;;;5092543;28;20903;-76
2023/09/10 07:38:30;;;;;;;66.90;48.60;;;;;;;;;;5092737;28;20417;-76
2023/09/10 07:40:55;;;;;;;69.60;51.70;;;;;;;;;;5092833;28;20494;-76
2023/09/10 07:43:23;;;;;;;81.03;52.00;;;;;;;;;;5089719;28;20618;-77
2023/09/10 07:45:49;;;;;;;80.67;52.17;;;;;;;;;;5091217;28;20485;-77
2023/09/10 07:48:15;;;;;;;69.33;52.00;;;;;;;;;;5091259;28;20418;-77
2023/09/10 07:50:41;;;;;;;73.43;50.70;;;;;;;;;;5091163;28;20405;-77
2023/09/10 07:53:07;;;;;;;69.17;49.43;;;;;;;;;;5091227;28;20405;-76
2023/09/10 07:55:35;;;;;;;71.10;50.10;;;;;;;;;;5091696;28;20414;-77
2023/09/10 07:58:02;;;;;;;67.47;48.97;;;;;;;;;;5089475;28;20165;-76
2023/09/10 08:00:29;;;;;;;75.53;52.80;;;;;;;;;;5091836;28;20406;-76
2023/09/10 08:02:55;;;;;;;84.77;58.23;;;;;;;;;;5093123;28;20451;-77
2023/09/10 08:05:21;;;;;;;87.27;57.40;;;;;;;;;;5095780;28;20515;-76
2023/09/10 08:07:47;;;;;;;72.63;53.90;;;;;;;;;;5096216;28;20173;-77
2023/09/10 08:10:13;;;;;;;64.43;50.00;;;;;;;;;;5096138;28;20413;-76
2023/09/10 08:12:39;;;;;;;66.37;46.63;;;;;;;;;;5095592;28;20207;-76
2023/09/10 08:15:05;;;;;;;63.17;46.50;;;;;;;;;;5096070;28;20445;-77
2023/09/10 08:17:31;;;;;;;77.23;52.70;;;;;;;;;;5095953;28;20227;-76
2023/09/10 08:19:57;;;;;;;73.33;54.43;;;;;;;;;;5095579;28;20927;-76
2023/09/10 08:22:23;;;;;;;76.00;57.40;;;;;;;;;;5095918;28;20413;-76
2023/09/10 08:24:50;;;;;;;78.70;55.50;;;;;;;;;;5094601;28;20220;-78
2023/09/10 08:27:16;;;;;;;66.70;52.80;;;;;;;;;;5095707;28;20402;-77
2023/09/10 08:29:42;;;;;;;70.17;54.70;;;;;;;;;;5095710;28;20455;-77
2023/09/10 08:32:07;;;;;;;70.43;52.33;;;;;;;;;;5095437;28;20179;-77
2023/09/10 08:34:33;;;;;;;63.57;51.70;;;;;;;;;;5095398;28;20185;-78
2023/09/10 08:37:02;;;;;;;68.53;52.90;;;;;;;;;;5094197;28;20178;-78
2023/09/10 08:39:28;;;;;;;63.60;49.33;;;;;;;;;;5095459;28;20419;-78
2023/09/10 08:42:03;;;;;;;61.17;47.97;;;;;;;;;;5095661;28;20878;-78
2023/09/10 08:44:29;;;;;;;56.63;44.47;;;;;;;;;;5095589;28;20478;-77
2023/09/10 08:46:55;;;;;;;50.50;43.10;;;;;;;;;;5095610;28;20409;-78
2023/09/10 08:49:21;;;;;;;58.77;45.40;;;;;;;;;;5095578;28;20398;-78
2023/09/10 08:51:48;;;;;;;45.70;39.40;;;;;;;;;;5095089;28;20420;-77
2023/09/10 08:54:14;;;;;;;43.07;35.03;;;;;;;;;;5095398;28;20405;-77
2023/09/10 08:56:40;;;;;;;48.27;40.33;;;;;;;;;;5095434;28;20410;-77
2023/09/10 08:59:07;;;;;;;46.97;41.13;;;;;;;;;;5095479;28;20405;-77
2023/09/10 09:01:33;;;;;;;43.60;36.70;;;;;;;;;;5095235;28;20462;-77
2023/09/10 09:03:59;;;;;;;61.27;50.43;;;;;;;;;;5095306;28;20477;-78
2023/09/10 09:06:28;;;;;;;53.87;45.53;;;;;;;;;;5089680;28;20444;-78
2023/09/10 09:08:57;;;;;;;50.83;41.90;;;;;;;;;;5074716;28;20418;-78
2023/09/10 09:11:23;;;;;;;47.00;39.23;;;;;;;;;;5074521;28;20417;-77
2023/09/10 09:13:49;;;;;;;58.33;47.43;;;;;;;;;;5073511;28;20432;-78
2023/09/10 09:16:16;;;;;;;70.17;55.37;;;;;;;;;;5074886;28;20464;-77
2023/09/10 09:18:42;;;;;;;71.90;57.83;;;;;;;;;;5073895;28;20473;-78
2023/09/10 09:21:18;;;;;;;69.63;56.60;;;;;;;;;;5074480;28;20502;-77
2023/09/10 09:24:04;;;;;;;59.67;52.93;;;;;;;;;;5074633;28;20463;-77
2023/09/10 09:26:30;;;;;;;56.70;48.17;;;;;;;;;;5074582;28;20421;-77
2023/09/10 09:28:56;;;;;;;53.87;46.60;;;;;;;;;;5074558;28;20405;-77
2023/09/10 09:31:23;;;;;;;52.33;44.50;;;;;;;;;;5074659;28;20183;-78
2023/09/10 09:33:49;;;;;;;50.50;44.80;;;;;;;;;;5074532;28;20927;-77
2023/09/10 09:36:15;;;;;;;56.20;46.70;;;;;;;;;;5074063;28;20401;-77
2023/09/10 09:38:42;;;;;;;55.33;48.37;;;;;;;;;;5074499;28;20829;-77
2023/09/10 09:41:08;;;;;;;51.13;45.60;;;;;;;;;;5074416;28;20918;-79
2023/09/10 09:43:34;;;;;;;52.47;46.77;;;;;;;;;;5074276;28;20532;-77
2023/09/10 09:46:01;;;;;;;53.57;45.90;;;;;;;;;;5074302;28;20175;-78
2023/09/10 09:48:27;;;;;;;55.73;46.90;;;;;;;;;;5074234;28;20425;-77
2023/09/10 09:50:53;;;;;;;55.73;48.10;;;;;;;;;;5073794;28;20414;-77
2023/09/10 09:53:19;;;;;;;50.23;44.77;;;;;;;;;;5074080;28;20522;-78
2023/09/10 09:55:45;;;;;;;51.37;42.80;;;;;;;;;;5074088;28;20219;-76
2023/09/10 09:58:11;;;;;;;52.10;43.03;;;;;;;;;;5073884;28;20407;-78
2023/09/10 10:00:37;;;;;;;44.20;37.47;;;;;;;;;;5073947;28;20419;-78
2023/09/10 10:03:04;;;;;;;38.87;35.00;;;;;;;;;;5073561;28;20479;-78
2023/09/10 10:05:30;;;;;;;43.10;38.50;;;;;;;;;;5076563;28;20427;-78
2023/09/10 10:07:56;;;;;;;45.73;40.97;;;;;;;;;;5085401;28;20787;-79
2023/09/10 10:10:22;;;;;;;41.13;36.73;;;;;;;;;;5093155;28;20505;-79
2023/09/10 10:12:48;;;;;;;41.07;36.87;;;;;;;;;;5092549;28;20414;-78
2023/09/10 10:15:14;;;;;;;34.63;31.33;;;;;;;;;;5093486;28;20179;-79
2023/09/10 10:17:42;;;;;;;34.33;30.93;;;;;;;;;;5093938;28;20469;-80
2023/09/10 10:20:08;;;;;;;33.53;30.50;;;;;;;;;;5093604;28;20438;-79
2023/09/10 10:22:34;;;;;;;33.97;30.87;;;;;;;;;;5092541;28;20915;-80
2023/09/10 10:25:01;;;;;;;32.70;29.80;;;;;;;;;;5091646;28;20478;-79
2023/09/10 10:27:27;;;;;;;32.13;29.07;;;;;;;;;;5093800;28;20403;-79
2023/09/10 10:29:53;;;;;;;32.60;29.53;;;;;;;;;;5093738;28;20414;-80
2023/09/10 10:32:27;;;;;;;33.83;30.93;;;;;;;;;;5093538;28;20411;-79
2023/09/10 10:34:57;;;;;;;34.43;31.20;;;;;;;;;;5093280;28;20177;-79
2023/09/10 10:37:25;;;;;;;29.13;26.57;;;;;;;;;;5092331;28;20419;-79
2023/09/10 10:40:05;;;;;;;28.10;25.70;;;;;;;;;;5093362;28;20429;-80
2023/09/10 10:42:36;;;;;;;29.80;27.17;;;;;;;;;;5093298;28;20398;-79
2023/09/10 10:45:05;;;;;;;28.10;25.63;;;;;;;;;;5093234;28;20472;-79
2023/09/10 10:47:34;;;;;;;27.47;25.07;;;;;;;;;;5093212;28;20414;-79
2023/09/10 10:50:01;;;;;;;25.43;23.17;;;;;;;;;;5092837;28;20990;-79
2023/09/10 10:52:31;;;;;;;30.33;27.77;;;;;;;;;;5093244;28;20776;-79
2023/09/10 10:55:06;;;;;;;27.53;25.23;;;;;;;;;;5093185;28;20922;-80
2023/09/10 10:57:32;;;;;;;29.90;27.20;;;;;;;;;;5093335;28;20902;-79
2023/09/10 10:59:58;;;;;;;31.27;28.57;;;;;;;;;;5093109;28;20886;-79
2023/09/10 11:02:25;;;;;;;29.40;26.70;;;;;;;;;;5092990;28;20531;-79
2023/09/10 11:04:58;;;;;;;30.50;27.80;;;;;;;;;;5092577;28;20504;-79
2023/09/10 11:07:24;;;;;;;27.40;25.10;;;;;;;;;;5092827;28;20402;-79
2023/09/10 11:09:50;;;;;;;26.97;24.67;;;;;;;;;;5093034;28;20442;-79
2023/09/10 11:12:16;;;;;;;30.03;27.57;;;;;;;;;;5092916;28;20410;-79
2023/09/10 11:15:00;;;;;;;27.73;25.53;;;;;;;;;;5092940;28;20410;-80
2023/09/10 11:17:32;;;;;;;29.30;26.80;;;;;;;;;;5092885;28;20433;-80
2023/09/10 11:19:58;;;;;;;26.40;24.13;;;;;;;;;;5092456;28;20410;-80
2023/09/10 11:22:24;;;;;;;25.53;23.33;;;;;;;;;;5092915;28;20438;-80
2023/09/10 11:25:06;;;;;;;25.70;23.63;;;;;;;;;;5092792;28;20901;-80
2023/09/10 11:27:38;;;;;;;28.10;25.80;;;;;;;;;;5091540;28;20164;-80
2023/09/10 11:30:07;;;;;;;28.33;25.73;;;;;;;;;;5092755;28;20502;-79
2023/09/10 11:32:33;;;;;;;24.80;22.70;;;;;;;;;;5092605;28;20406;-79
2023/09/10 11:35:17;;;;;;;29.73;27.23;;;;;;;;;;5092399;28;20863;-80
2023/09/10 11:37:47;;;;;;;28.40;26.10;;;;;;;;;;5096877;28;20481;-80
2023/09/10 11:40:13;;;;;;;28.77;26.40;;;;;;;;;;5097051;28;20504;-79
2023/09/10 11:42:42;;;;;;;27.40;25.10;;;;;;;;;;5096821;28;20479;-81
2023/09/10 11:45:09;;;;;;;25.83;23.63;;;;;;;;;;5095504;28;20441;-80
2023/09/10 11:47:35;;;;;;;25.43;23.17;;;;;;;;;;5096676;28;20509;-80
2023/09/10 11:50:04;;;;;;;30.37;27.67;;;;;;;;;;5096337;28;20463;-80
2023/09/10 11:52:31;;;;;;;28.10;25.70;;;;;;;;;;5096621;28;20418;-80
2023/09/10 11:54:59;;;;;;;24.37;22.47;;;;;;;;;;5096587;28;20461;-80
2023/09/10 11:57:25;;;;;;;25.27;23.20;;;;;;;;;;5096610;28;20466;-80
2023/09/10 11:59:52;;;;;;;25.60;23.67;;;;;;;;;;5096437;28;20416;-80
2023/09/10 12:02:24;;;;;;;26.63;24.43;;;;;;;;;;5094976;28;20540;-80
2023/09/10 12:04:49;;;;;;;22.20;20.60;;;;;;;;;;5096116;28;20807;-80
2023/09/10 12:07:15;;;;;;;22.73;21.03;;;;;;;;;;5096355;28;20417;-80
2023/09/10 12:09:41;;;;;;;24.30;22.40;;;;;;;;;;5096375;28;20167;-80
2023/09/10 12:12:13;;;;;;;20.77;18.97;;;;;;;;;;5096185;28;20168;-80
2023/09/10 12:14:39;;;;;;;24.50;22.60;;;;;;;;;;5096194;28;20619;-80
2023/09/10 12:17:05;;;;;;;25.53;23.43;;;;;;;;;;5096069;28;20445;-80
2023/09/10 12:19:32;;;;;;;23.83;21.93;;;;;;;;;;5095862;28;20585;-80
2023/09/10 12:21:58;;;;;;;24.50;22.57;;;;;;;;;;5096059;28;20413;-80
2023/09/10 12:24:24;;;;;;;23.43;21.53;;;;;;;;;;5095932;28;20894;-80
2023/09/10 12:26:53;;;;;;;25.07;23.00;;;;;;;;;;5095928;28;20163;-80
2023/09/10 12:29:20;;;;;;;22.87;21.07;;;;;;;;;;5095879;28;20406;-80
2023/09/10 12:31:47;;;;;;;22.63;20.93;;;;;;;;;;5094580;28;20402;-80
2023/09/10 12:34:14;;;;;;;23.87;22.03;;;;;;;;;;5095351;28;20931;-80
2023/09/10 12:36:45;;;;;;;21.40;19.67;;;;;;;;;;5095762;28;20397;-80
2023/09/10 12:39:40;;;;;;;21.93;20.00;;;;;;;;;;5095710;28;20410;-80
2023/09/10 12:42:06;;;;;;;24.27;22.37;;;;;;;;;;5091014;28;20821;-80
2023/09/10 12:44:36;;;;;;;23.40;21.70;;;;;;;;;;5095660;28;20418;-80
2023/09/10 12:47:02;;;;;;;19.80;18.30;;;;;;;;;;5093721;28;20176;-80
2023/09/10 12:49:28;;;;;;;22.83;20.90;;;;;;;;;;5095327;28;21010;-80
2023/09/10 12:51:54;;;;;;;18.67;17.27;;;;;;;;;;5095490;28;20500;-80
2023/09/10 12:54:20;;;;;;;21.63;19.93;;;;;;;;;;5094076;28;20260;-79
2023/09/10 12:56:51;;;;;;;22.07;20.40;;;;;;;;;;5095525;28;20176;-80
2023/09/10 12:59:21;;;;;;;25.50;23.50;;;;;;;;;;5095425;28;20175;-80
2023/09/10 13:01:48;;;;;;;21.87;19.97;;;;;;;;;;5095020;28;20484;-80
2023/09/10 13:04:14;;;;;;;22.63;20.77;;;;;;;;;;5094969;28;20410;-79
2023/09/10 13:06:40;;;;;;;20.63;19.23;;;;;;;;;;5095215;28;20487;-80
2023/09/10 13:09:06;;;;;;;23.40;21.43;;;;;;;;;;5095166;28;20176;-80
2023/09/10 13:11:33;;;;;;;23.00;21.20;;;;;;;;;;5093871;28;20188;-80
2023/09/10 13:14:01;;;;;;;25.23;23.33;;;;;;;;;;5094935;28;20207;-80
2023/09/10 13:16:27;;;;;;;22.40;20.63;;;;;;;;;;5094979;28;20493;-80
2023/09/10 13:18:52;;;;;;;21.23;19.63;;;;;;;;;;5093732;28;20410;-80
2023/09/10 13:21:18;;;;;;;18.07;16.70;;;;;;;;;;5094621;28;20414;-80
2023/09/10 13:23:44;;;;;;;18.70;17.20;;;;;;;;;;5094870;28;20547;-80
2023/09/10 13:26:10;;;;;;;18.57;17.07;;;;;;;;;;5094822;28;20246;-80
2023/09/10 13:28:39;;;;;;;19.57;18.07;;;;;;;;;;5093382;28;20187;-80
2023/09/10 13:31:05;;;;;;;19.60;18.00;;;;;;;;;;5094798;28;20898;-79
2023/09/10 13:33:31;;;;;;;17.50;16.20;;;;;;;;;;5094600;28;20457;-80
2023/09/10 13:35:57;;;;;;;17.20;15.80;;;;;;;;;;5094294;28;20191;-79
2023/09/10 13:38:22;;;;;;;17.80;16.13;;;;;;;;;;5094627;28;20895;-79
2023/09/10 13:40:53;;;;;;;17.73;15.90;;;;;;;;;;5094601;28;20172;-80
2023/09/10 13:43:19;;;;;;;18.50;17.00;;;;;;;;;;5094404;28;20161;-79
2023/09/10 13:45:45;;;;;;;19.20;17.50;;;;;;;;;;5094493;28;20913;-79
2023/09/10 13:48:11;;;;;;;19.03;17.43;;;;;;;;;;5094475;28;20172;-79
2023/09/10 13:50:36;;;;;;;21.80;19.80;;;;;;;;;;5094134;28;20179;-79
2023/09/10 13:53:03;;;;;;;22.13;20.00;;;;;;;;;;5094314;28;20168;-79
2023/09/10 13:55:29;;;;;;;24.57;22.40;;;;;;;;;;5094303;28;20180;-79
2023/09/10 13:57:54;;;;;;;19.60;18.00;;;;;;;;;;5094251;28;20458;-79
2023/09/10 14:00:20;;;;;;;20.07;18.27;;;;;;;;;;5094341;28;20292;-79
2023/09/10 14:02:46;;;;;;;18.67;16.93;;;;;;;;;;5094024;28;20681;-79
2023/09/10 14:05:12;;;;;;;21.40;19.57;;;;;;;;;;5093868;28;20213;-79
2023/09/10 14:07:41;;;;;;;23.10;21.10;;;;;;;;;;5094083;28;20168;-79
2023/09/10 14:10:07;;;;;;;19.90;18.17;;;;;;;;;;5094030;28;20191;-79
2023/09/10 14:12:33;;;;;;;19.57;17.93;;;;;;;;;;5093943;28;20845;-79
2023/09/10 14:14:59;;;;;;;15.80;14.50;;;;;;;;;;5093930;28;20556;-79